Time;durP1;ratioP1;P1;durP2;ratioP2;P2;SDS_P1;SDS_P2;PMS_P1;PMS_P2;Temp;Humidity;BMP_temperature;BMP_pressure;BME280_temperature;BME280_humidity;BME280_pressure;Samples;Min_cycle;Max_cycle;Signal;HPM_P1;HPM_P2
2021/08/12 08:24:21;;;;;;;5.72;3.50;;;;;;;;;;2083998;27;100336;-17
2021/08/12 08:25:22;;;;;;;9.38;3.80;;;;;;;;;;2080790;27;99975;-20
2021/08/12 08:26:23;;;;;;;6.68;3.53;;;;;;;;;;2084339;27;99967;-21
2021/08/12 08:27:42;;;;;;;6.43;3.45;;;;;;;;;;2089323;27;100008;-19
2021/08/12 08:28:44;;;;;;;5.47;3.78;;;;;;;;;;2088094;27;99971;-19
2021/08/12 08:29:45;;;;;;;7.40;3.47;;;;;;;;;;2088723;27;100071;-20
2021/08/12 08:30:47;;;;;;;7.78;3.42;;;;;;;;;;2087702;27;100094;-19
2021/08/12 08:31:49;;;;;;;8.40;3.67;;;;;;;;;;2088953;27;100382;-20
2021/08/12 08:32:52;;;;;;;7.75;3.33;;;;;;;;;;2079523;28;100022;-19
2021/08/12 08:33:53;;;;;;;11.48;4.10;;;;;;;;;;2080307;27;100070;-19
2021/08/12 08:34:55;;;;;;;6.75;3.30;;;;;;;;;;2085784;27;100201;-21
2021/08/12 08:35:56;;;;;;;7.93;3.80;;;;;;;;;;2079571;27;100152;-20
2021/08/12 08:36:57;;;;;;;7.05;3.28;;;;;;;;;;2087925;27;100223;-21
2021/08/12 08:37:59;;;;;;;;;;;;;;;;;;2080408;28;100014;-18
2021/08/12 08:39:00;;;;;;;7.57;3.75;;;;;;;;;;2088263;27;99894;-22
2021/08/12 08:40:03;;;;;;;9.65;3.90;;;;;;;;;;2079406;27;100103;-19
2021/08/12 08:41:06;;;;;;;8.90;4.10;;;;;;;;;;2072077;27;101486;-18
2021/08/12 08:42:08;;;;;;;9.43;3.35;;;;;;;;;;2088730;27;100076;-20
2021/08/12 08:43:09;;;;;;;8.88;3.78;;;;;;;;;;2089214;27;100080;-18
2021/08/12 08:44:12;;;;;;;7.72;4.00;;;;;;;;;;2088995;27;99973;-19
2021/08/12 08:45:21;;;;;;;7.53;3.45;;;;;;;;;;2071009;28;101045;-21
2021/08/12 08:46:23;;;;;;;5.82;3.22;;;;;;;;;;2073765;27;100024;-21
2021/08/12 08:47:25;;;;;;;6.75;3.45;;;;;;;;;;2088574;27;100464;-19
2021/08/12 08:48:28;;;;;;;6.93;3.88;;;;;;;;;;2088011;27;100226;-21
2021/08/12 08:49:30;;;;;;;7.03;3.65;;;;;;;;;;2087875;27;100027;-18
2021/08/12 08:50:32;;;;;;;9.45;3.60;;;;;;;;;;2088875;27;100041;-20
2021/08/12 08:51:35;;;;;;;6.90;3.67;;;;;;;;;;2087697;27;100417;-21
2021/08/12 08:52:37;;;;;;;6.75;3.55;;;;;;;;;;2088313;27;99976;-25
2021/08/12 08:53:39;;;;;;;7.78;3.92;;;;;;;;;;2088483;27;100126;-19
2021/08/12 08:54:44;;;;;;;4.20;3.20;;;;;;;;;;2088436;27;100028;-21
2021/08/12 08:55:45;;;;;;;7.70;3.65;;;;;;;;;;2080100;27;100711;-21
2021/08/12 08:56:47;;;;;;;6.13;3.45;;;;;;;;;;2088497;27;100385;-23
2021/08/12 08:57:55;;;;;;;8.27;4.05;;;;;;;;;;2089049;27;99994;-21
2021/08/12 08:58:56;;;;;;;8.85;3.75;;;;;;;;;;2089012;27;100010;-22
2021/08/12 08:59:58;;;;;;;5.72;3.42;;;;;;;;;;2088150;27;100028;-20
2021/08/12 09:01:00;;;;;;;7.88;3.78;;;;;;;;;;2088078;27;99987;-21
2021/08/12 09:02:01;;;;;;;;;;;;;;;;;;2089019;27;99950;-19
2021/08/12 09:03:03;;;;;;;9.70;3.35;;;;;;;;;;2088195;27;100081;-22
2021/08/12 09:04:05;;;;;;;8.90;4.00;;;;;;;;;;2079782;27;100006;-20
2021/08/12 09:05:06;;;;;;;6.95;3.70;;;;;;;;;;2079608;27;100024;-20
2021/08/12 09:06:10;;;;;;;7.25;3.55;;;;;;;;;;2088372;27;99933;-19
2021/08/12 09:07:12;;;;;;;6.65;3.30;;;;;;;;;;2089001;27;100022;-21
2021/08/12 09:08:14;;;;;;;8.43;3.53;;;;;;;;;;2089210;27;100009;-22
2021/08/12 09:09:15;;;;;;;5.00;2.78;;;;;;;;;;2088293;27;100621;-22
2021/08/12 09:10:17;;;;;;;6.82;3.35;;;;;;;;;;2088817;27;100120;-19
2021/08/12 09:11:18;;;;;;;5.97;3.25;;;;;;;;;;2088905;27;99966;-21
2021/08/12 09:12:19;;;;;;;8.65;3.50;;;;;;;;;;2088854;27;99801;-20
2021/08/12 09:13:20;;;;;;;10.20;3.67;;;;;;;;;;2089250;27;99910;-20
2021/08/12 09:14:36;;;;;;;;;;;;;;;;;;2088948;27;99952;-21
2021/08/12 09:15:45;;;;;;;7.70;3.95;;;;;;;;;;2088623;27;100087;-19
2021/08/12 09:16:46;;;;;;;8.50;3.50;;;;;;;;;;2088714;27;99976;-22
2021/08/12 09:17:47;;;;;;;;;;;;;;;;;;2089470;27;99994;-19
2021/08/12 09:19:22;;;;;;;8.32;3.50;;;;;;;;;;2088768;27;99961;-19
2021/08/12 09:20:26;;;;;;;7.05;3.85;;;;;;;;;;2088822;27;100011;-21
2021/08/12 09:21:27;;;;;;;6.80;4.03;;;;;;;;;;2088717;27;100027;-20
2021/08/12 09:22:29;;;;;;;;;;;;;;;;;;2089521;27;100097;-23
2021/08/12 09:23:30;;;;;;;8.07;4.07;;;;;;;;;;2087385;27;100014;-21
2021/08/12 09:24:47;;;;;;;;;;;;;;;;;;2088407;27;99916;-19
2021/08/12 09:26:19;;;;;;;8.10;4.00;;;;;;;;;;2083709;28;99990;-22
2021/08/12 09:27:24;;;;;;;9.85;3.72;;;;;;;;;;2083563;28;99889;-19
2021/08/12 09:28:32;;;;;;;9.57;3.95;;;;;;;;;;2083495;27;99836;-20
2021/08/12 09:29:33;;;;;;;10.65;4.15;;;;;;;;;;2083614;28;99981;-21
2021/08/12 09:30:35;;;;;;;5.82;3.33;;;;;;;;;;2082595;28;99996;-21
2021/08/12 09:31:53;;;;;;;;;;;;;;;;;;2074985;28;99960;-19
2021/08/12 09:32:54;;;;;;;8.90;3.53;;;;;;;;;;2082986;28;100021;-22
2021/08/12 09:33:55;;;;;;;;;;;;;;;;;;2083755;28;99969;-22
2021/08/12 09:34:57;;;;;;;;;;;;;;;;;;2083768;27;100518;-20
2021/08/12 09:36:00;;;;;;;10.23;3.90;;;;;;;;;;2083284;27;99953;-19
2021/08/12 09:37:05;;;;;;;9.95;3.67;;;;;;;;;;2083448;27;99994;-19
2021/08/12 09:38:08;;;;;;;7.75;3.67;;;;;;;;;;2082511;28;100035;-20
2021/08/12 09:39:20;;;;;;;5.40;3.20;;;;;;;;;;2082859;28;100020;-22
2021/08/12 09:40:25;;;;;;;9.50;3.72;;;;;;;;;;2083182;28;100022;-21
2021/08/12 09:41:37;;;;;;;8.38;3.75;;;;;;;;;;2083396;28;100155;-21
2021/08/12 09:42:58;;;;;;;4.53;3.50;;;;;;;;;;2082571;28;100178;-22
2021/08/12 09:44:00;;;;;;;8.45;3.88;;;;;;;;;;2082627;28;100094;-21
2021/08/12 09:45:00;;;;;;;;;;;;;;;;;;2083857;28;99820;-20
2021/08/12 09:46:03;;;;;;;11.52;3.88;;;;;;;;;;2083139;28;100327;-19
2021/08/12 09:47:07;;;;;;;14.70;3.88;;;;;;;;;;2083445;28;99971;-21
2021/08/12 09:48:16;;;;;;;7.93;4.00;;;;;;;;;;2082969;27;100078;-21
2021/08/12 09:49:17;;;;;;;11.55;4.28;;;;;;;;;;2083236;28;99887;-19
2021/08/12 09:50:25;;;;;;;;;;;;;;;;;;2083326;27;99904;-19
2021/08/12 09:51:34;;;;;;;7.20;3.83;;;;;;;;;;2082846;28;100032;-20
2021/08/12 09:52:37;;;;;;;8.10;4.05;;;;;;;;;;2082647;28;100227;-21
2021/08/12 09:53:44;;;;;;;7.13;3.90;;;;;;;;;;2082865;28;100121;-21
2021/08/12 09:54:44;;;;;;;;;;;;;;;;;;2083212;28;100159;-19
2021/08/12 09:55:47;;;;;;;6.95;3.65;;;;;;;;;;2082461;27;99957;-21
2021/08/12 09:56:48;;;;;;;11.18;3.50;;;;;;;;;;2082440;28;100142;-22
2021/08/12 09:57:52;;;;;;;;;;;;;;;;;;2083174;28;99997;-19
2021/08/12 09:59:05;;;;;;;7.50;3.80;;;;;;;;;;2082646;28;100051;-21
2021/08/12 10:00:06;;;;;;;9.85;4.40;;;;;;;;;;2083374;27;100482;-19
2021/08/12 10:01:25;;;;;;;8.93;3.75;;;;;;;;;;2082142;28;99948;-19
2021/08/12 10:02:31;;;;;;;8.95;3.83;;;;;;;;;;2076300;28;100315;-18
2021/08/12 10:03:32;;;;;;;8.45;4.22;;;;;;;;;;2082686;28;100116;-19
2021/08/12 10:04:33;;;;;;;4.68;3.65;;;;;;;;;;2083046;27;99919;-20
2021/08/12 10:05:37;;;;;;;;;;;;;;;;;;2082713;28;100112;-19
2021/08/12 10:06:37;;;;;;;7.40;3.70;;;;;;;;;;2074506;28;100385;-22
2021/08/12 10:07:45;;;;;;;;;;;;;;;;;;2083222;28;99984;-22
2021/08/12 10:08:46;;;;;;;10.98;3.83;;;;;;;;;;2082685;27;99995;-21
2021/08/12 10:09:47;;;;;;;;;;;;;;;;;;2083425;27;100070;-19
2021/08/12 10:10:47;;;;;;;10.73;3.90;;;;;;;;;;2082180;28;100111;-20
2021/08/12 10:11:49;;;;;;;9.95;4.22;;;;;;;;;;2082016;28;100181;-19
2021/08/12 10:12:56;;;;;;;8.60;4.10;;;;;;;;;;2082495;27;100521;-17
2021/08/12 10:14:02;;;;;;;8.82;4.38;;;;;;;;;;2082774;27;100196;-20
2021/08/12 10:15:04;;;;;;;11.05;4.20;;;;;;;;;;2082462;27;100046;-20
2021/08/12 10:16:06;;;;;;;6.70;4.05;;;;;;;;;;2082975;27;100333;-19
2021/08/12 10:17:07;;;;;;;7.43;4.00;;;;;;;;;;2081687;28;100122;-18
2021/08/12 10:18:08;;;;;;;6.53;3.85;;;;;;;;;;2073476;28;99908;-21
2021/08/12 10:19:14;;;;;;;8.52;4.00;;;;;;;;;;2081990;28;99939;-19
2021/08/12 10:20:21;;;;;;;5.82;3.35;;;;;;;;;;2073742;28;100086;-21
2021/08/12 10:21:23;;;;;;;8.57;4.03;;;;;;;;;;2074635;28;99903;-21
2021/08/12 10:22:25;;;;;;;10.45;3.80;;;;;;;;;;2082434;27;100017;-18
2021/08/12 10:23:26;;;;;;;10.18;4.47;;;;;;;;;;2081693;27;100095;-21
2021/08/12 10:24:28;;;;;;;9.35;4.50;;;;;;;;;;2082373;27;99875;-22
2021/08/12 10:25:31;;;;;;;13.25;5.40;;;;;;;;;;2071215;28;100011;-20
2021/08/12 10:26:33;;;;;;;15.45;5.32;;;;;;;;;;2065001;28;100153;-19
2021/08/12 10:27:36;;;;;;;12.40;4.97;;;;;;;;;;2081170;28;100035;-21
2021/08/12 10:28:41;;;;;;;11.52;4.43;;;;;;;;;;2081788;28;100484;-25
2021/08/12 10:29:45;;;;;;;9.00;3.95;;;;;;;;;;2081727;28;100124;-18
2021/08/12 10:30:46;;;;;;;8.05;3.92;;;;;;;;;;2082367;27;99970;-19
2021/08/12 10:31:48;;;;;;;12.93;4.80;;;;;;;;;;2081871;27;100366;-21
2021/08/12 10:32:54;;;;;;;7.00;4.65;;;;;;;;;;2073097;28;100166;-20
2021/08/12 10:33:56;;;;;;;8.07;4.80;;;;;;;;;;2050117;28;100257;-19
2021/08/12 10:34:58;;;;;;;9.18;4.32;;;;;;;;;;2065823;28;100028;-22
2021/08/12 10:35:59;;;;;;;13.77;5.20;;;;;;;;;;2081527;28;100003;-20
2021/08/12 10:37:01;;;;;;;9.52;5.45;;;;;;;;;;2071899;28;100024;-20
2021/08/12 10:38:03;;;;;;;9.43;4.70;;;;;;;;;;2073127;28;99923;-20
2021/08/12 10:39:06;;;;;;;10.32;4.30;;;;;;;;;;2082362;27;99991;-19
2021/08/12 10:40:11;;;;;;;8.20;4.22;;;;;;;;;;2082147;27;100147;-18
2021/08/12 10:41:15;;;;;;;13.63;4.55;;;;;;;;;;2082355;28;100062;-21
2021/08/12 10:42:18;;;;;;;14.30;4.57;;;;;;;;;;2082032;28;100158;-23
2021/08/12 10:43:25;;;;;;;12.35;4.43;;;;;;;;;;2081100;28;99997;-19
2021/08/12 10:44:26;;;;;;;11.60;5.00;;;;;;;;;;2081628;28;100333;-21
2021/08/12 10:45:29;;;;;;;8.75;4.43;;;;;;;;;;2081708;28;100024;-19
2021/08/12 10:46:39;;;;;;;10.07;4.22;;;;;;;;;;2081396;28;100387;-19
2021/08/12 10:47:47;;;;;;;13.23;4.82;;;;;;;;;;2080397;28;100078;-19
2021/08/12 10:48:48;;;;;;;9.27;4.53;;;;;;;;;;2073932;28;99983;-18
2021/08/12 10:49:50;;;;;;;12.50;4.63;;;;;;;;;;2081369;28;99963;-20
2021/08/12 10:51:10;;;;;;;9.15;4.22;;;;;;;;;;2081356;28;100126;-19
2021/08/12 10:52:12;;;;;;;11.05;4.50;;;;;;;;;;2081941;27;100044;-21
2021/08/12 10:53:15;;;;;;;8.35;4.53;;;;;;;;;;2073159;28;100023;-22
2021/08/12 10:54:18;;;;;;;9.50;4.47;;;;;;;;;;2073999;28;100227;-23
2021/08/12 10:55:19;;;;;;;9.50;4.20;;;;;;;;;;2081849;27;101142;-19
2021/08/12 10:56:20;;;;;;;8.18;3.58;;;;;;;;;;2081923;27;99961;-21
2021/08/12 10:57:23;;;;;;;;;;;;;;;;;;2081604;28;100037;-19
2021/08/12 10:58:33;;;;;;;10.55;4.20;;;;;;;;;;2081354;28;100086;-21
2021/08/12 10:59:38;;;;;;;11.73;4.10;;;;;;;;;;2081462;28;100137;-21
2021/08/12 11:00:49;;;;;;;10.90;3.97;;;;;;;;;;2080763;28;100038;-20
2021/08/12 11:01:52;;;;;;;10.10;4.57;;;;;;;;;;2079784;28;100663;-20
2021/08/12 11:03:05;;;;;;;7.32;4.07;;;;;;;;;;2079848;28;100526;-21
2021/08/12 11:04:07;;;;;;;10.23;3.83;;;;;;;;;;2064963;28;101208;-20
2021/08/12 11:05:09;;;;;;;10.07;4.65;;;;;;;;;;2070263;28;100331;-19
2021/08/12 11:06:21;;;;;;;6.63;3.65;;;;;;;;;;2081385;27;100514;-19
2021/08/12 11:07:54;;;;;;;8.00;3.90;;;;;;;;;;2082089;27;100306;-19
2021/08/12 11:08:59;;;;;;;13.10;4.38;;;;;;;;;;2064101;28;100260;-21
2021/08/12 11:10:00;;;;;;;10.32;4.03;;;;;;;;;;2073226;28;100530;-21
2021/08/12 11:11:01;;;;;;;10.45;4.18;;;;;;;;;;2080625;28;101635;-19
2021/08/12 11:12:03;;;;;;;9.48;3.67;;;;;;;;;;2062583;28;100239;-20
2021/08/12 11:13:05;;;;;;;6.88;3.80;;;;;;;;;;2052364;28;100173;-20
2021/08/12 11:14:13;;;;;;;10.77;4.30;;;;;;;;;;2048605;28;100385;-19
2021/08/12 11:15:14;;;;;;;8.05;4.20;;;;;;;;;;2073869;28;100081;-20
2021/08/12 11:16:16;;;;;;;8.52;4.13;;;;;;;;;;2073031;28;100023;-19
2021/08/12 11:17:17;;;;;;;7.03;3.88;;;;;;;;;;2073718;28;100366;-22
2021/08/12 11:18:57;;;;;;;9.38;3.60;;;;;;;;;;2081218;28;99921;-21
2021/08/12 11:19:58;;;;;;;9.00;3.80;;;;;;;;;;2086923;27;100537;-19
2021/08/12 11:20:59;;;;;;;11.77;3.95;;;;;;;;;;2077712;27;100012;-23
2021/08/12 11:22:01;;;;;;;5.60;3.42;;;;;;;;;;2072652;28;99992;-17
2021/08/12 11:23:20;;;;;;;11.43;3.78;;;;;;;;;;2081260;28;99992;-18
2021/08/12 11:24:24;;;;;;;9.70;3.83;;;;;;;;;;2081471;28;100124;-18
2021/08/12 11:25:59;;;;;;;10.95;3.75;;;;;;;;;;2077080;27;100097;-20
2021/08/12 11:27:00;;;;;;;9.68;3.60;;;;;;;;;;2081649;27;100367;-21
2021/08/12 11:28:01;;;;;;;;;;;;;;;;;;2081681;28;99814;-20
2021/08/12 11:29:02;;;;;;;6.22;3.92;;;;;;;;;;2064858;28;100106;-19
2021/08/12 11:30:36;;;;;;;5.50;3.67;;;;;;;;;;2064787;28;100134;-21
2021/08/12 11:31:38;;;;;;;8.65;3.58;;;;;;;;;;2064100;28;100034;-21
2021/08/12 11:33:17;;;;;;;8.52;3.33;;;;;;;;;;2066876;28;100018;-20
2021/08/12 11:34:45;;;;;;;6.40;3.78;;;;;;;;;;2078618;28;99917;-19
2021/08/12 11:36:05;;;;;;;4.35;3.42;;;;;;;;;;2073205;28;100028;-22
2021/08/12 11:37:09;;;;;;;8.52;3.65;;;;;;;;;;2074454;28;100480;-20
2021/08/12 11:38:10;;;;;;;7.32;3.50;;;;;;;;;;2073808;28;99936;-21
2021/08/12 11:39:11;;;;;;;;;;;;;;;;;;2074719;28;99865;-22
2021/08/12 11:40:12;;;;;;;10.52;3.70;;;;;;;;;;2072919;28;100051;-20
2021/08/12 11:41:14;;;;;;;9.02;3.42;;;;;;;;;;2072961;28;99984;-24
2021/08/12 11:42:44;;;;;;;9.13;3.40;;;;;;;;;;2072958;28;100226;-22
2021/08/12 11:43:48;;;;;;;6.60;3.10;;;;;;;;;;2073009;28;100186;-22
2021/08/12 11:44:53;;;;;;;7.18;3.30;;;;;;;;;;2072614;28;99919;-20
2021/08/12 11:45:56;;;;;;;8.88;3.60;;;;;;;;;;2073526;28;100611;-20
2021/08/12 11:46:58;;;;;;;5.80;3.30;;;;;;;;;;2072636;28;100187;-20
2021/08/12 11:47:59;;;;;;;5.93;3.50;;;;;;;;;;2064670;28;99891;-18
2021/08/12 11:49:06;;;;;;;10.27;3.83;;;;;;;;;;2059243;28;100618;-19
2021/08/12 11:50:14;;;;;;;7.28;2.97;;;;;;;;;;2056845;28;100060;-22
2021/08/12 11:57:02;;;;;;;8.55;3.17;;;;;;;;;;1967707;29;99997;-15
2021/08/12 11:58:04;;;;;;;6.72;3.05;;;;;;;;;;1955023;29;100014;-14
2021/08/12 11:59:05;;;;;;;5.75;3.20;;;;;;;;;;1955589;29;100095;-16
2021/08/12 12:00:12;;;;;;;6.68;3.60;;;;;;;;;;1955305;29;99902;-18
2021/08/12 12:01:21;;;;;;;8.27;3.40;;;;;;;;;;1955736;29;100141;-15
2021/08/12 12:02:22;;;;;;;7.60;3.30;;;;;;;;;;1963927;29;99877;-15
2021/08/12 12:03:27;;;;;;;;;;;;;;;;;;1971416;29;100017;-14
2021/08/12 12:04:31;;;;;;;3.95;3.20;;;;;;;;;;1970734;29;100057;-17
2021/08/12 12:05:37;;;;;;;6.03;3.45;;;;;;;;;;1970838;29;100198;-16
2021/08/12 12:06:40;;;;;;;7.20;3.13;;;;;;;;;;1970684;29;100108;-15
2021/08/12 12:07:42;;;;;;;5.00;3.22;;;;;;;;;;1969993;29;100019;-14
2021/08/12 12:08:43;;;;;;;5.85;3.35;;;;;;;;;;1970363;29;99989;-14
2021/08/12 12:09:44;;;;;;;5.53;3.33;;;;;;;;;;1971313;29;100369;-15
2021/08/12 12:10:45;;;;;;;;;;;;;;;;;;1963452;29;100100;-15
2021/08/12 12:12:04;;;;;;;6.65;4.07;;;;;;;;;;1962970;29;100521;-15
2021/08/12 12:13:21;;;;;;;11.13;4.53;;;;;;;;;;1965613;29;100438;-14
2021/08/12 12:14:27;;;;;;;9.27;4.55;;;;;;;;;;1970124;29;100564;-17
2021/08/12 12:15:30;;;;;;;10.50;4.65;;;;;;;;;;1969597;29;99944;-16
2021/08/12 12:16:31;;;;;;;8.75;3.78;;;;;;;;;;1973211;29;100537;-16
2021/08/12 12:17:33;;;;;;;11.35;4.78;;;;;;;;;;1970516;29;100252;-16
2021/08/12 12:18:44;;;;;;;5.15;3.42;;;;;;;;;;1964003;29;100076;-16
2021/08/12 12:20:09;;;;;;;8.52;3.45;;;;;;;;;;1977927;29;100291;-15
2021/08/12 12:21:18;;;;;;;8.45;4.05;;;;;;;;;;1967949;29;100192;-16
2021/08/12 12:22:19;;;;;;;14.20;5.65;;;;;;;;;;1970419;29;100175;-16
2021/08/12 12:23:23;;;;;;;;;;;;;;;;;;1971487;29;101729;-16
2021/08/12 12:24:24;;;;;;;11.00;4.55;;;;;;;;;;1970586;29;100136;-16
2021/08/12 12:25:26;;;;;;;9.27;4.40;;;;;;;;;;1971174;29;100433;-15
2021/08/12 12:26:27;;;;;;;9.32;3.90;;;;;;;;;;1970785;29;100416;-16
2021/08/12 12:27:28;;;;;;;;;;;;;;;;;;1971754;29;100214;-16
2021/08/12 12:28:32;;;;;;;7.65;3.88;;;;;;;;;;1969860;29;100083;-16
2021/08/12 12:29:32;;;;;;;10.10;3.70;;;;;;;;;;1970282;29;100516;-16
2021/08/12 12:30:34;;;;;;;;;;;;;;;;;;1970404;29;100733;-16
2021/08/12 12:31:35;;;;;;;8.20;3.95;;;;;;;;;;1970026;29;100109;-15
2021/08/12 12:32:36;;;;;;;;;;;;;;;;;;1970484;29;100251;-14
2021/08/12 12:33:37;;;;;;;8.57;3.67;;;;;;;;;;1970092;29;100523;-15
2021/08/12 12:34:51;;;;;;;;;;;;;;;;;;1958376;29;100181;-15
2021/08/12 12:35:53;;;;;;;7.75;3.90;;;;;;;;;;1964468;29;100366;-14
2021/08/12 12:36:54;;;;;;;7.93;3.83;;;;;;;;;;1969404;29;100141;-15
2021/08/12 12:37:55;;;;;;;8.88;4.00;;;;;;;;;;1969577;29;101377;-16
2021/08/12 12:38:57;;;;;;;8.40;3.97;;;;;;;;;;1969895;29;100105;-14
2021/08/12 12:39:59;;;;;;;10.40;3.88;;;;;;;;;;1969695;29;100248;-15
2021/08/12 12:41:06;;;;;;;7.20;3.70;;;;;;;;;;1968946;29;100101;-16
2021/08/12 12:42:07;;;;;;;8.13;3.90;;;;;;;;;;1969511;29;100794;-16
2021/08/12 12:43:08;;;;;;;7.00;3.83;;;;;;;;;;1969758;29;100073;-14
2021/08/12 12:44:11;;;;;;;8.95;3.65;;;;;;;;;;1970073;29;100144;-15
2021/08/12 12:45:13;;;;;;;6.97;3.83;;;;;;;;;;1970038;29;100103;-14
2021/08/12 12:46:30;;;;;;;9.23;3.88;;;;;;;;;;1961682;29;100782;-16
2021/08/12 12:47:33;;;;;;;8.30;3.58;;;;;;;;;;1963038;29;102440;-14
2021/08/12 12:48:38;;;;;;;11.07;3.65;;;;;;;;;;1968049;29;100130;-14
2021/08/12 12:49:39;;;;;;;8.13;3.65;;;;;;;;;;1970535;29;100012;-16
2021/08/12 12:50:49;;;;;;;;;;;;;;;;;;1970742;29;100165;-13
2021/08/12 12:51:51;;;;;;;7.85;3.85;;;;;;;;;;1969900;29;100329;-16
2021/08/12 12:52:58;;;;;;;7.22;3.47;;;;;;;;;;1971124;29;99917;-15
2021/08/12 12:54:00;;;;;;;8.80;3.45;;;;;;;;;;1963269;29;100100;-15
2021/08/12 12:55:15;;;;;;;6.82;2.97;;;;;;;;;;1963469;29;100047;-14
2021/08/12 12:56:25;;;;;;;5.40;3.50;;;;;;;;;;1964286;29;99982;-14
2021/08/12 12:57:30;;;;;;;7.90;3.25;;;;;;;;;;1970269;29;100136;-14
2021/08/12 12:58:36;;;;;;;5.32;3.50;;;;;;;;;;1969383;29;100041;-15
2021/08/12 12:59:37;;;;;;;5.03;3.03;;;;;;;;;;1963629;29;100097;-14
2021/08/12 13:00:39;;;;;;;9.15;3.63;;;;;;;;;;1964574;29;100026;-15
2021/08/12 13:01:40;;;;;;;6.65;3.13;;;;;;;;;;1971434;29;100084;-13
2021/08/12 13:02:40;;;;;;;;;;;;;;;;;;1971749;29;99942;-14
2021/08/12 13:03:43;;;;;;;11.90;3.70;;;;;;;;;;1971718;29;99969;-14
2021/08/12 13:04:55;;;;;;;8.82;4.18;;;;;;;;;;1971245;29;99994;-15
2021/08/12 13:05:58;;;;;;;7.32;3.38;;;;;;;;;;1973191;29;100040;-16
2021/08/12 13:06:59;;;;;;;7.43;3.30;;;;;;;;;;1971280;29;100345;-16
2021/08/12 13:08:12;;;;;;;;;;;;;;;;;;1971159;29;100107;-15
2021/08/12 13:09:37;;;;;;;4.95;3.40;;;;;;;;;;1970551;29;100085;-15
2021/08/12 13:10:38;;;;;;;8.88;3.20;;;;;;;;;;1971438;29;100058;-15
2021/08/12 13:11:41;;;;;;;;;;;;;;;;;;1971874;29;100269;-17
2021/08/12 13:12:55;;;;;;;4.82;2.90;;;;;;;;;;1970875;29;100078;-15
2021/08/12 13:14:07;;;;;;;7.82;3.08;;;;;;;;;;1970984;29;100366;-15
2021/08/12 13:15:13;;;;;;;9.18;3.78;;;;;;;;;;1970237;29;100095;-14
2021/08/12 13:16:17;;;;;;;6.60;3.70;;;;;;;;;;1971276;29;100656;-14
2021/08/12 13:17:30;;;;;;;10.50;3.70;;;;;;;;;;1971186;29;100132;-17
2021/08/12 13:18:54;;;;;;;10.05;3.83;;;;;;;;;;1971168;29;100015;-15
2021/08/12 13:20:16;;;;;;;6.93;3.53;;;;;;;;;;1971510;29;100137;-16
2021/08/12 13:21:47;;;;;;;7.00;3.35;;;;;;;;;;1970369;29;100763;-16
2021/08/12 13:22:50;;;;;;;7.70;3.55;;;;;;;;;;1962752;29;100261;-15
2021/08/12 13:23:55;;;;;;;8.55;3.55;;;;;;;;;;1970887;29;100097;-16
2021/08/12 13:24:56;;;;;;;7.35;3.60;;;;;;;;;;1971167;29;100383;-17
2021/08/12 13:25:58;;;;;;;6.43;3.50;;;;;;;;;;1977738;29;100168;-15
2021/08/12 13:26:59;;;;;;;;;;;;;;;;;;1978279;29;100169;-15
2021/08/12 13:28:00;;;;;;;;;;;;;;;;;;1978558;29;100221;-17
2021/08/12 13:29:08;;;;;;;8.60;3.50;;;;;;;;;;1977896;29;100856;-14
2021/08/12 13:30:10;;;;;;;12.45;3.35;;;;;;;;;;1971322;29;100041;-16
2021/08/12 13:31:17;;;;;;;7.10;3.13;;;;;;;;;;1971688;29;99995;-16
2021/08/12 13:32:18;;;;;;;7.80;3.28;;;;;;;;;;1972250;29;100454;-16
2021/08/12 13:33:25;;;;;;;8.43;3.47;;;;;;;;;;1972319;29;100051;-16
2021/08/12 13:34:25;;;;;;;5.95;3.47;;;;;;;;;;1972102;29;100159;-15
2021/08/12 13:35:26;;;;;;;;;;;;;;;;;;1972355;29;100183;-15
2021/08/12 13:36:27;;;;;;;4.25;3.20;;;;;;;;;;1972097;29;100134;-15
2021/08/12 13:37:28;;;;;;;6.50;3.30;;;;;;;;;;1971920;29;100135;-15
2021/08/12 13:38:29;;;;;;;;;;;;;;;;;;1972542;29;100236;-16
2021/08/12 13:39:30;;;;;;;6.15;3.25;;;;;;;;;;1972085;29;100016;-17
2021/08/12 13:40:31;;;;;;;7.72;3.13;;;;;;;;;;1971132;29;100111;-17
2021/08/12 13:41:47;;;;;;;5.82;3.40;;;;;;;;;;1970223;29;100163;-14
2021/08/12 13:42:49;;;;;;;9.20;3.70;;;;;;;;;;1971554;29;100121;-18
2021/08/12 13:43:50;;;;;;;4.97;3.15;;;;;;;;;;1971936;29;100051;-16
2021/08/12 13:44:51;;;;;;;6.13;2.88;;;;;;;;;;1971447;29;99965;-15
2021/08/12 13:45:52;;;;;;;8.15;2.88;;;;;;;;;;1971379;29;100011;-16
2021/08/12 13:46:53;;;;;;;;;;;;;;;;;;1972036;29;100159;-15
2021/08/12 13:47:54;;;;;;;5.63;2.90;;;;;;;;;;1971741;29;99866;-17
2021/08/12 13:48:55;;;;;;;;;;;;;;;;;;1972135;29;100047;-16
2021/08/12 13:49:56;;;;;;;7.93;2.85;;;;;;;;;;1971623;29;100174;-17
2021/08/12 13:50:57;;;;;;;6.72;3.42;;;;;;;;;;1971933;29;100113;-15
2021/08/12 13:51:59;;;;;;;;;;;;;;;;;;1972097;29;100828;-17
2021/08/12 13:53:00;;;;;;;10.07;3.22;;;;;;;;;;1971932;29;100248;-15
2021/08/12 13:54:01;;;;;;;6.93;2.78;;;;;;;;;;1971123;29;100269;-17
2021/08/12 13:55:02;;;;;;;6.28;3.20;;;;;;;;;;1970963;29;100272;-15
2021/08/12 13:56:04;;;;;;;6.45;3.30;;;;;;;;;;1971718;29;100122;-16
2021/08/12 13:57:05;;;;;;;4.88;2.95;;;;;;;;;;1978454;29;100039;-16
2021/08/12 13:58:07;;;;;;;5.13;2.85;;;;;;;;;;1978304;29;100151;-15
2021/08/12 13:59:08;;;;;;;7.20;3.30;;;;;;;;;;1979118;29;100235;-17
2021/08/12 14:00:09;;;;;;;5.10;3.00;;;;;;;;;;1979002;29;100068;-15
2021/08/12 14:01:13;;;;;;;6.93;3.10;;;;;;;;;;1978771;29;99975;-15
2021/08/12 14:02:14;;;;;;;5.95;3.00;;;;;;;;;;1978504;29;100281;-15
2021/08/12 14:03:20;;;;;;;;;;;;;;;;;;1979672;29;100000;-15
2021/08/12 14:04:22;;;;;;;7.18;3.10;;;;;;;;;;1979632;29;99934;-16
2021/08/12 14:05:24;;;;;;;6.20;3.20;;;;;;;;;;1979549;29;99912;-16
2021/08/12 14:06:24;;;;;;;;;;;;;;;;;;1979832;29;100151;-16
2021/08/12 14:07:25;;;;;;;6.22;2.83;;;;;;;;;;1979538;29;100017;-17
2021/08/12 14:08:26;;;;;;;5.38;3.00;;;;;;;;;;1979098;29;100022;-16
2021/08/12 14:09:28;;;;;;;5.53;2.67;;;;;;;;;;1970851;29;100012;-16
2021/08/12 14:10:29;;;;;;;6.40;3.00;;;;;;;;;;1971159;29;100113;-15
2021/08/12 14:11:34;;;;;;;7.63;3.40;;;;;;;;;;1979261;29;100025;-16
2021/08/12 14:12:36;;;;;;;4.55;3.20;;;;;;;;;;1979012;29;101379;-16
2021/08/12 14:13:37;;;;;;;7.28;3.08;;;;;;;;;;1979610;29;99963;-15
2021/08/12 14:14:38;;;;;;;;;;;;;;;;;;1979876;29;99995;-17
2021/08/12 14:15:38;;;;;;;5.82;2.97;;;;;;;;;;1979205;29;100013;-15
2021/08/12 14:16:39;;;;;;;7.07;2.90;;;;;;;;;;1979312;29;99977;-15
2021/08/12 14:17:42;;;;;;;6.75;3.10;;;;;;;;;;1978853;29;99989;-15
2021/08/12 14:18:44;;;;;;;3.80;3.00;;;;;;;;;;1978994;29;100011;-16
2021/08/12 14:19:45;;;;;;;5.68;3.17;;;;;;;;;;1979323;29;99928;-16
2021/08/12 14:20:45;;;;;;;;;;;;;;;;;;1971057;29;100070;-18
2021/08/12 14:21:46;;;;;;;6.22;2.88;;;;;;;;;;1970881;29;100151;-16
2021/08/12 14:22:47;;;;;;;4.70;3.13;;;;;;;;;;1978730;29;100087;-16
2021/08/12 14:23:48;;;;;;;6.47;2.90;;;;;;;;;;1979306;29;100315;-16
2021/08/12 14:24:49;;;;;;;7.78;3.40;;;;;;;;;;1979744;29;100194;-16
2021/08/12 14:25:50;;;;;;;;;;;;;;;;;;1979760;29;100217;-15
2021/08/12 14:26:51;;;;;;;4.15;2.58;;;;;;;;;;1979257;29;99972;-15
2021/08/12 14:27:51;;;;;;;4.53;3.17;;;;;;;;;;1978993;29;100044;-16
2021/08/12 14:28:52;;;;;;;5.03;2.90;;;;;;;;;;1979346;29;99893;-17
2021/08/12 14:29:53;;;;;;;;;;;;;;;;;;1979401;29;99958;-16
2021/08/12 14:30:54;;;;;;;;;;;;;;;;;;1971389;29;99983;-17
2021/08/12 14:31:55;;;;;;;;;;;;;;;;;;1971288;29;100340;-16
2021/08/12 14:32:56;;;;;;;;;;;;;;;;;;1979461;29;100204;-17
2021/08/12 14:33:58;;;;;;;;;;;;;;;;;;1979376;29;100043;-16
2021/08/12 14:34:58;;;;;;;;;;;;;;;;;;1980149;29;100083;-15
2021/08/12 14:36:01;;;;;;;;;;;;;;;;;;1979262;29;100076;-15
2021/08/12 14:37:02;;;;;;;;;;;;;;;;;;1979807;29;100029;-14
2021/08/12 14:38:03;;;;;;;;;;;;;;;;;;1979534;29;99900;-14
2021/08/12 14:39:05;;;;;;;;;;;;;;;;;;1979633;29;100016;-15
2021/08/12 14:40:08;;;;;;;;;;;;;;;;;;1979454;29;100060;-16
2021/08/12 14:41:10;;;;;;;;;;;;;;;;;;1979830;29;100015;-16
2021/08/12 14:42:10;;;;;;;;;;;;;;;;;;1979375;29;100339;-16
2021/08/12 14:43:11;;;;;;;;;;;;;;;;;;1973010;29;100213;-15
2021/08/12 14:44:12;;;;;;;;;;;;;;;;;;1978666;29;100161;-17
2021/08/12 14:45:13;;;;;;;;;;;;;;;;;;1979480;29;100027;-15
2021/08/12 14:46:14;;;;;;;;;;;;;;;;;;1979499;29;100373;-15
2021/08/12 14:47:19;;;;;;;;;;;;;;;;;;1979474;29;100021;-17
2021/08/12 14:48:21;;;;;;;;;;;;;;;;;;1979041;29;100087;-16
2021/08/12 14:49:21;;;;;;;;;;;;;;;;;;1979809;29;100052;-17
2021/08/12 14:50:23;;;;;;;;;;;;;;;;;;1978922;29;100017;-16
2021/08/12 14:51:24;;;;;;;;;;;;;;;;;;1979902;29;100294;-16
2021/08/12 14:52:25;;;;;;;;;;;;;;;;;;1979184;29;100800;-16
2021/08/12 14:53:26;;;;;;;;;;;;;;;;;;1979422;29;99996;-15
2021/08/12 14:54:26;;;;;;;;;;;;;;;;;;1979327;29;100143;-17
2021/08/12 14:55:27;;;;;;;;;;;;;;;;;;1979977;29;100023;-16
2021/08/12 14:56:28;;;;;;;;;;;;;;;;;;1978840;29;100522;-15
2021/08/12 14:57:28;;;;;;;;;;;;;;;;;;1971194;29;100087;-16
2021/08/12 14:58:30;;;;;;;;;;;;;;;;;;1971130;29;100119;-17
2021/08/12 14:59:32;;;;;;;;;;;;;;;;;;1979027;29;99966;-16
2021/08/12 15:00:33;;;;;;;;;;;;;;;;;;1978865;29;99964;-15